createdAt,value
2022-12-12T00:00:17.942Z,28.48
2022-12-12T00:01:53.733Z,24.23
2022-12-12T00:03:25.491Z,24.55
2022-12-12T00:05:00.086Z,28.17
2022-12-12T00:06:31.676Z,23.17
2022-12-12T00:08:03.557Z,23.85
2022-12-12T00:09:35.259Z,25.17
2022-12-12T00:11:07.718Z,26.27
2022-12-12T00:12:39.803Z,24.52
2022-12-12T00:14:11.475Z,23.90
2022-12-12T00:15:43.095Z,27.33
2022-12-12T00:17:14.741Z,28.48
2022-12-12T00:18:46.722Z,21.75
2022-12-12T00:20:18.457Z,26.52
2022-12-12T00:21:50.488Z,28.33
2022-12-12T00:23:23.319Z,26.52
2022-12-12T00:24:54.959Z,27.95
2022-12-12T00:26:29.504Z,26.92
2022-12-12T00:28:02.506Z,28.77
2022-12-12T00:29:34.455Z,27.70
2022-12-12T00:31:06.141Z,29.45
2022-12-12T00:32:37.820Z,28.20
2022-12-12T00:34:09.395Z,32.80
2022-12-12T00:35:41.014Z,29.42
2022-12-12T00:37:12.638Z,36.35
2022-12-12T00:38:47.395Z,29.58
2022-12-12T00:40:19.287Z,33.58
2022-12-12T00:41:50.961Z,35.30
2022-12-12T00:43:22.871Z,27.92
2022-12-12T00:44:54.560Z,26.63
2022-12-12T00:46:26.622Z,31.42
2022-12-12T00:47:58.211Z,30.80
2022-12-12T00:49:30.235Z,27.73
2022-12-12T00:51:08.960Z,30.40
2022-12-12T00:52:40.561Z,34.53
2022-12-12T00:54:12.424Z,27.50
2022-12-12T00:55:44.095Z,30.55
2022-12-12T00:57:15.705Z,31.17
2022-12-12T00:58:48.001Z,26.67
2022-12-12T01:00:21.047Z,30.65
2022-12-12T01:01:52.689Z,27.95
2022-12-12T01:03:24.324Z,29.35
2022-12-12T01:04:55.891Z,25.65
2022-12-12T01:06:28.442Z,28.25
2022-12-12T01:08:00.161Z,26.98
2022-12-12T01:09:31.774Z,28.83
2022-12-12T01:11:03.453Z,27.27
2022-12-12T01:12:35.237Z,32.13
2022-12-12T01:14:07.015Z,30.13
2022-12-12T01:15:38.624Z,27.95
2022-12-12T01:17:10.255Z,31.75
2022-12-12T01:18:42.873Z,28.70
2022-12-12T01:20:21.977Z,33.40
2022-12-12T01:21:53.549Z,30.27
2022-12-12T01:23:25.248Z,27.40
2022-12-12T01:24:57.076Z,30.38
2022-12-12T01:26:28.811Z,30.45
2022-12-12T01:28:00.453Z,31.42
2022-12-12T01:29:34.283Z,29.92
2022-12-12T01:31:06.398Z,32.53
2022-12-12T01:32:37.956Z,35.83
2022-12-12T01:34:09.623Z,36.15
2022-12-12T01:35:41.217Z,35.40
2022-12-12T01:37:12.759Z,38.97
2022-12-12T01:38:49.797Z,35.85
2022-12-12T01:40:24.736Z,28.73
2022-12-12T01:41:56.436Z,32.80
2022-12-12T01:43:29.746Z,31.98
2022-12-12T01:45:01.750Z,38.58
2022-12-12T01:46:45.777Z,34.33
2022-12-12T01:48:18.928Z,28.20
2022-12-12T01:50:02.448Z,34.60
2022-12-12T01:51:34.196Z,39.10
2022-12-12T01:53:05.927Z,40.60
2022-12-12T01:54:42.801Z,36.80
2022-12-12T01:56:18.767Z,39.97
2022-12-12T01:57:53.733Z,30.23
2022-12-12T01:59:26.911Z,40.30
2022-12-12T02:00:58.477Z,34.42
2022-12-12T02:02:30.256Z,39.53
2022-12-12T02:04:02.631Z,40.17
2022-12-12T02:05:39.166Z,37.20
2022-12-12T02:07:10.946Z,39.30
2022-12-12T02:09:20.260Z,39.58
2022-12-12T02:10:52.007Z,34.33
2022-12-12T02:12:23.601Z,35.38
2022-12-12T02:13:55.754Z,37.50
2022-12-12T02:15:33.202Z,34.72
2022-12-12T02:17:10.806Z,34.53
2022-12-12T02:19:02.186Z,40.30
2022-12-12T02:20:36.322Z,34.08
2022-12-12T02:22:07.817Z,33.38
2022-12-12T02:23:52.057Z,34.97
2022-12-12T02:25:51.497Z,33.40
2022-12-12T02:27:48.129Z,32.00
2022-12-12T02:29:31.731Z,43.22
2022-12-12T02:31:34.502Z,32.58
2022-12-12T02:33:17.902Z,30.42
2022-12-12T02:35:11.424Z,39.28
2022-12-12T02:37:12.370Z,36.45
2022-12-12T02:39:08.350Z,31.23
2022-12-12T02:41:02.222Z,39.53
2022-12-12T02:42:33.794Z,36.58
2022-12-12T02:44:07.910Z,31.95
2022-12-12T02:45:45.553Z,41.60
2022-12-12T02:47:31.524Z,39.97
2022-12-12T02:49:09.815Z,33.95
2022-12-12T02:50:43.703Z,39.95
2022-12-12T02:52:16.822Z,35.45
2022-12-12T02:53:48.397Z,35.03
2022-12-12T02:55:20.654Z,28.58
2022-12-12T02:56:55.435Z,24.27
2022-12-12T02:58:27.305Z,26.00
2022-12-12T03:00:01.276Z,30.52
2022-12-12T03:01:52.471Z,20.77
2022-12-12T03:04:24.114Z,17.38
2022-12-12T03:06:29.369Z,21.25
2022-12-12T03:08:40.147Z,27.33
2022-12-12T03:10:50.843Z,26.08
2022-12-12T03:12:48.932Z,23.63
2022-12-12T03:14:39.108Z,22.95
2022-12-12T03:16:36.031Z,20.10
2022-12-12T03:18:32.050Z,25.55
2022-12-12T03:22:09.980Z,23.10
2022-12-12T03:23:49.125Z,22.15
2022-12-12T03:25:28.167Z,17.42
2022-12-12T03:27:43.591Z,20.10
2022-12-12T03:29:20.788Z,30.92
2022-12-12T03:30:56.776Z,24.08
2022-12-12T03:32:33.950Z,25.80
2022-12-12T03:34:13.532Z,29.65
2022-12-12T03:35:56.054Z,23.85
2022-12-12T03:37:33.351Z,24.98
2022-12-12T03:39:15.386Z,25.33
2022-12-12T03:40:52.023Z,24.52
2022-12-12T03:42:35.253Z,23.63
2022-12-12T03:44:06.838Z,25.63
2022-12-12T03:46:05.598Z,26.92
2022-12-12T03:47:57.814Z,28.73
2022-12-12T03:49:38.193Z,23.75
2022-12-12T03:51:21.961Z,23.98
2022-12-12T03:53:02.747Z,21.45
2022-12-12T03:54:42.525Z,27.08
2022-12-12T03:56:27.077Z,25.67
2022-12-12T03:58:03.015Z,27.65
2022-12-12T03:59:44.699Z,24.77
2022-12-12T04:01:19.542Z,28.23
2022-12-12T04:03:03.180Z,30.10
2022-12-12T04:04:45.521Z,25.23
2022-12-12T04:06:27.067Z,31.42
2022-12-12T04:08:08.648Z,29.80
2022-12-12T04:09:59.770Z,32.38
2022-12-12T04:11:57.769Z,24.73
2022-12-12T04:14:03.770Z,26.55
2022-12-12T04:15:35.241Z,20.45
2022-12-12T04:17:11.403Z,28.00
2022-12-12T04:19:06.486Z,22.75
2022-12-12T04:21:15.570Z,22.85
2022-12-12T04:23:16.421Z,21.83
2022-12-12T04:25:02.072Z,27.20
2022-12-12T04:26:41.950Z,64.80
2022-12-12T04:28:13.783Z,23.55
2022-12-12T04:30:11.687Z,23.60
2022-12-12T04:32:03.651Z,26.63
2022-12-12T04:33:45.898Z,18.60
2022-12-12T04:35:24.497Z,22.95
2022-12-12T04:36:58.504Z,17.92
2022-12-12T04:38:30.341Z,24.35
2022-12-12T04:40:07.477Z,24.23
2022-12-12T04:41:41.003Z,25.30
2022-12-12T04:43:20.851Z,24.00
2022-12-12T04:44:56.071Z,26.10
2022-12-12T04:46:31.082Z,24.75
2022-12-12T04:48:04.868Z,28.75
2022-12-12T04:49:39.886Z,28.38
2022-12-12T04:51:15.842Z,26.70
2022-12-12T04:52:49.200Z,20.23
2022-12-12T04:54:41.677Z,24.33
2022-12-12T04:56:19.474Z,25.25
2022-12-12T04:57:54.676Z,24.95
2022-12-12T04:59:26.832Z,29.88
2022-12-12T05:01:04.599Z,27.20
2022-12-12T05:02:49.997Z,25.77
2022-12-12T05:04:29.835Z,22.42
2022-12-12T05:06:07.851Z,24.48
2022-12-12T05:07:42.739Z,22.95
2022-12-12T05:09:17.770Z,23.48
2022-12-12T05:10:54.269Z,29.13
2022-12-12T05:12:26.426Z,22.73
2022-12-12T05:13:58.160Z,21.73
2022-12-12T05:15:29.975Z,24.45
2022-12-12T05:17:09.564Z,23.75
2022-12-12T05:18:41.939Z,19.13
2022-12-12T05:20:15.147Z,22.15
2022-12-12T05:21:46.882Z,20.05
2022-12-12T05:23:18.575Z,21.10
2022-12-12T05:24:50.138Z,25.00
2022-12-12T05:26:25.256Z,18.90
2022-12-12T05:27:57.466Z,18.73
2022-12-12T05:29:29.962Z,22.85
2022-12-12T05:31:01.719Z,23.17
2022-12-12T05:32:33.471Z,22.88
2022-12-12T05:34:06.104Z,17.38
2022-12-12T05:35:38.977Z,23.83
2022-12-12T05:37:11.174Z,23.50
2022-12-12T05:38:42.958Z,21.98
2022-12-12T05:40:14.973Z,22.30
2022-12-12T05:41:46.818Z,21.23
2022-12-12T05:43:18.670Z,20.95
2022-12-12T05:44:50.351Z,22.85
2022-12-12T05:46:22.066Z,29.15
2022-12-12T05:47:53.828Z,23.15
2022-12-12T05:49:25.445Z,22.65
2022-12-12T05:50:57.044Z,21.08
2022-12-12T05:52:28.848Z,23.27
2022-12-12T05:54:00.541Z,27.48
2022-12-12T05:55:32.168Z,22.30
2022-12-12T05:57:03.936Z,24.40
2022-12-12T05:58:35.614Z,25.25
2022-12-12T06:00:07.987Z,17.73
2022-12-12T06:01:40.191Z,31.02
2022-12-12T06:03:11.815Z,25.88
2022-12-12T06:04:43.427Z,27.55
2022-12-12T06:06:15.142Z,24.33
2022-12-12T06:07:46.833Z,27.08
2022-12-12T06:09:18.539Z,19.75
2022-12-12T06:10:50.182Z,18.83
2022-12-12T06:12:23.072Z,23.55
2022-12-12T06:13:54.719Z,25.45
2022-12-12T06:15:26.377Z,26.52
2022-12-12T06:16:58.060Z,23.15
2022-12-12T06:18:29.614Z,20.10
2022-12-12T06:20:01.803Z,22.45
2022-12-12T06:21:33.436Z,24.48
2022-12-12T06:23:05.230Z,19.17
2022-12-12T06:24:36.865Z,20.02
2022-12-12T06:26:10.795Z,21.40
2022-12-12T06:27:42.449Z,22.58
2022-12-12T06:29:15.770Z,22.70
2022-12-12T06:30:47.592Z,18.85
2022-12-12T06:32:19.347Z,17.52
2022-12-12T06:33:51.660Z,19.58
2022-12-12T06:35:23.573Z,12.30
2022-12-12T06:36:55.167Z,20.45
2022-12-12T06:38:26.819Z,20.25
2022-12-12T06:39:58.444Z,19.08
2022-12-12T06:41:31.870Z,22.80
2022-12-12T06:43:03.540Z,19.45
2022-12-12T06:44:35.178Z,19.33
2022-12-12T06:46:10.383Z,19.45
2022-12-12T06:47:42.030Z,18.70
2022-12-12T06:49:13.618Z,23.77
2022-12-12T06:50:46.053Z,21.98
2022-12-12T06:52:17.677Z,18.65
2022-12-12T06:53:49.804Z,27.33
2022-12-12T06:55:21.439Z,23.60
2022-12-12T06:56:53.038Z,21.38
2022-12-12T06:58:24.612Z,21.40
2022-12-12T06:59:56.346Z,16.50
2022-12-12T07:01:28.316Z,18.73
2022-12-12T07:02:59.940Z,25.38
2022-12-12T07:04:31.805Z,26.70
2022-12-12T07:06:03.533Z,22.92
2022-12-12T07:07:35.144Z,22.25
2022-12-12T07:09:07.069Z,19.30
2022-12-12T07:10:38.850Z,22.13
2022-12-12T07:12:10.676Z,27.02
2022-12-12T07:13:42.807Z,21.88
2022-12-12T07:15:14.686Z,23.77
2022-12-12T07:16:46.380Z,24.25
2022-12-12T07:18:19.040Z,17.75
2022-12-12T07:19:50.599Z,25.00
2022-12-12T07:21:22.506Z,21.92
2022-12-12T07:22:54.067Z,24.05
2022-12-12T07:24:25.688Z,24.88
2022-12-12T07:25:57.267Z,23.63
2022-12-12T07:27:28.813Z,23.67
2022-12-12T07:29:03.613Z,22.20
2022-12-12T07:30:38.029Z,19.67
2022-12-12T07:32:09.708Z,23.98
2022-12-12T07:33:44.464Z,21.13
2022-12-12T07:35:16.780Z,22.25
2022-12-12T07:36:49.210Z,26.70
2022-12-12T07:38:20.711Z,27.42
2022-12-12T07:39:52.279Z,28.58
2022-12-12T07:41:23.897Z,29.80
2022-12-12T07:42:55.508Z,23.45
2022-12-12T07:44:27.101Z,21.52
2022-12-12T07:45:58.695Z,22.42
2022-12-12T07:47:30.358Z,31.90
2022-12-12T07:49:02.015Z,25.10
2022-12-12T07:50:33.641Z,26.58
2022-12-12T07:52:05.346Z,22.90
2022-12-12T07:53:36.938Z,27.08
2022-12-12T07:55:09.018Z,23.98
2022-12-12T07:56:43.144Z,26.17
2022-12-12T07:58:14.742Z,29.17
2022-12-12T07:59:46.357Z,29.08
2022-12-12T08:01:24.431Z,28.05
2022-12-12T08:02:56.230Z,23.80
2022-12-12T08:04:27.832Z,26.23
2022-12-12T08:05:59.550Z,29.98
2022-12-12T08:07:31.252Z,28.88
2022-12-12T08:09:03.611Z,26.77
2022-12-12T08:10:38.645Z,23.40
2022-12-12T08:12:10.851Z,27.73
2022-12-12T08:13:42.874Z,27.85
2022-12-12T08:15:16.930Z,27.27
2022-12-12T08:16:48.709Z,25.08
2022-12-12T08:18:20.235Z,27.00
2022-12-12T08:19:52.236Z,25.15
2022-12-12T08:21:26.728Z,24.75
2022-12-12T08:22:59.090Z,25.90
2022-12-12T08:24:30.885Z,30.50
2022-12-12T08:26:08.601Z,27.60
2022-12-12T08:27:40.194Z,25.52
2022-12-12T08:29:12.497Z,22.80
2022-12-12T08:30:49.272Z,21.20
2022-12-12T08:32:21.406Z,26.60
2022-12-12T08:33:53.625Z,59.47
2022-12-12T08:35:25.293Z,56.45
2022-12-12T08:36:56.828Z,49.80
2022-12-12T08:38:30.379Z,52.80
2022-12-12T08:40:02.518Z,61.40
2022-12-12T08:41:36.830Z,53.90
2022-12-12T08:43:09.418Z,41.55
2022-12-12T08:44:41.100Z,25.80
2022-12-12T08:46:17.961Z,28.75
2022-12-12T08:47:49.993Z,27.27
2022-12-12T08:49:21.573Z,31.70
2022-12-12T08:50:53.307Z,28.10
2022-12-12T08:52:25.016Z,25.38
2022-12-12T08:53:56.606Z,24.75
2022-12-12T08:55:28.308Z,26.45
2022-12-12T08:56:59.977Z,29.08
2022-12-12T08:58:31.796Z,26.85
2022-12-12T09:00:04.811Z,26.65
2022-12-12T09:01:36.682Z,34.05
2022-12-12T09:03:09.963Z,32.05
2022-12-12T09:04:43.880Z,26.55
2022-12-12T09:06:17.846Z,46.55
2022-12-12T09:07:50.788Z,30.48
2022-12-12T09:09:22.943Z,34.17
2022-12-12T09:10:55.304Z,25.67
2022-12-12T09:12:27.629Z,25.17
2022-12-12T09:13:59.981Z,31.50
2022-12-12T09:15:35.858Z,32.40
2022-12-12T09:17:08.044Z,26.80
2022-12-12T09:18:48.187Z,28.98
2022-12-12T09:20:21.546Z,27.00
2022-12-12T09:21:54.150Z,30.85
2022-12-12T09:23:27.715Z,24.83
2022-12-12T09:25:00.741Z,31.98
2022-12-12T09:26:32.845Z,27.05
2022-12-12T09:28:05.284Z,28.90
2022-12-12T09:29:37.581Z,34.38
2022-12-12T09:31:12.808Z,28.05
2022-12-12T09:32:46.351Z,27.98
2022-12-12T09:34:19.125Z,28.08
2022-12-12T09:36:11.994Z,26.42
2022-12-12T09:37:44.436Z,26.08
2022-12-12T09:39:16.702Z,30.50
2022-12-12T09:40:56.338Z,29.35
2022-12-12T09:42:31.016Z,30.55
2022-12-12T09:44:06.374Z,27.60
2022-12-12T09:45:39.211Z,29.25
2022-12-12T09:47:20.078Z,29.00
2022-12-12T09:48:51.888Z,31.20
2022-12-12T09:50:25.955Z,28.15
2022-12-12T09:51:57.966Z,29.95
2022-12-12T09:53:29.969Z,29.52
2022-12-12T09:55:17.913Z,29.00
2022-12-12T09:57:13.476Z,35.85
2022-12-12T09:59:07.900Z,32.88
2022-12-12T10:00:44.728Z,24.52
2022-12-12T10:02:47.177Z,25.13
2022-12-12T10:04:24.691Z,26.02
2022-12-12T10:06:36.643Z,33.47
2022-12-12T10:08:22.267Z,31.73
2022-12-12T10:10:13.310Z,25.63
2022-12-12T10:11:52.144Z,26.25
2022-12-12T10:13:30.082Z,35.03
2022-12-12T10:15:07.824Z,28.23
2022-12-12T10:16:40.933Z,30.23
2022-12-12T10:18:33.412Z,28.77
2022-12-12T10:20:18.472Z,30.00
2022-12-12T10:21:53.301Z,27.02
2022-12-12T10:23:40.124Z,31.88
2022-12-12T10:25:39.680Z,28.23
2022-12-12T10:27:14.483Z,28.10
2022-12-12T10:28:51.504Z,27.80
2022-12-12T10:30:23.409Z,25.88
2022-12-12T10:31:58.174Z,29.27
2022-12-12T10:33:41.874Z,25.38
2022-12-12T10:35:32.190Z,29.35
2022-12-12T10:37:38.281Z,28.67
2022-12-12T10:39:34.875Z,26.95
2022-12-12T10:41:06.486Z,26.70
2022-12-12T10:43:13.239Z,25.50
2022-12-12T10:45:00.042Z,21.05
2022-12-12T10:46:37.588Z,22.35
2022-12-12T10:48:09.222Z,22.98
2022-12-12T10:49:42.109Z,21.63
2022-12-12T10:51:17.733Z,21.95
2022-12-12T10:52:49.253Z,22.98
2022-12-12T10:54:25.408Z,22.35
2022-12-12T10:56:07.809Z,27.02
2022-12-12T10:57:39.336Z,25.45
2022-12-12T10:59:21.754Z,25.42
2022-12-12T11:01:03.661Z,27.17
2022-12-12T11:02:40.995Z,24.08
2022-12-12T11:04:14.819Z,23.92
2022-12-12T11:05:47.599Z,25.40
2022-12-12T11:07:20.904Z,22.85
2022-12-12T11:08:57.008Z,25.38
2022-12-12T11:10:37.436Z,22.95
2022-12-12T11:12:09.182Z,24.98
2022-12-12T11:13:50.234Z,23.55
2022-12-12T11:15:28.784Z,22.23
2022-12-12T11:17:02.992Z,21.20
2022-12-12T11:18:34.653Z,23.33
2022-12-12T11:20:09.851Z,21.83
2022-12-12T11:21:41.533Z,20.55
2022-12-12T11:23:20.112Z,25.63
2022-12-12T11:24:52.679Z,22.55
2022-12-12T11:26:26.607Z,22.08
2022-12-12T11:28:06.660Z,22.27
2022-12-12T11:29:47.487Z,23.20
2022-12-12T11:31:24.282Z,28.75
2022-12-12T11:32:56.602Z,22.95
2022-12-12T11:34:29.828Z,22.55
2022-12-12T22:41:25.527Z,12.18
2022-12-12T22:42:58.841Z,23.45
2022-12-12T22:44:30.520Z,21.48
2022-12-12T22:46:04.912Z,26.42
2022-12-12T22:47:36.587Z,24.55
2022-12-12T22:49:08.356Z,35.17
2022-12-12T22:50:39.965Z,28.92
2022-12-12T22:52:11.721Z,30.38
2022-12-12T22:53:44.569Z,33.83
2022-12-12T22:55:16.756Z,26.25
2022-12-12T22:56:48.447Z,30.13
2022-12-12T22:58:20.164Z,26.42
2022-12-12T22:59:51.710Z,24.92
2022-12-12T23:01:24.573Z,28.90
2022-12-12T23:02:56.286Z,22.15
2022-12-12T23:04:27.948Z,30.20
2022-12-12T23:06:07.641Z,27.60
2022-12-12T23:07:39.438Z,36.55
2022-12-12T23:09:16.857Z,23.27
2022-12-12T23:10:48.617Z,26.95
2022-12-12T23:12:20.789Z,41.42
2022-12-12T23:13:59.886Z,39.13
2022-12-12T23:15:31.528Z,31.23
2022-12-12T23:17:03.244Z,30.88
2022-12-12T23:18:37.005Z,36.67
2022-12-12T23:20:10.414Z,25.48
2022-12-12T23:21:42.390Z,23.42
2022-12-12T23:23:14.191Z,19.83
2022-12-12T23:24:45.801Z,23.70
2022-12-12T23:26:20.328Z,26.45
2022-12-12T23:27:51.965Z,26.42
2022-12-12T23:29:23.675Z,22.48
2022-12-12T23:30:55.292Z,21.52
2022-12-12T23:32:27.066Z,22.80
2022-12-12T23:34:02.498Z,21.83
2022-12-12T23:35:34.241Z,26.15
2022-12-12T23:37:07.193Z,24.20
2022-12-12T23:38:39.238Z,23.20
2022-12-12T23:40:11.425Z,16.17
2022-12-12T23:41:43.234Z,17.25
2022-12-12T23:43:14.988Z,19.73
2022-12-12T23:44:50.707Z,19.55
2022-12-12T23:46:31.223Z,18.50
2022-12-12T23:48:04.320Z,15.77
2022-12-12T23:49:35.985Z,17.73
2022-12-12T23:51:07.863Z,14.52
2022-12-12T23:52:39.599Z,19.90
2022-12-12T23:54:14.315Z,16.98
2022-12-12T23:55:45.987Z,20.02
2022-12-12T23:57:17.701Z,16.00
2022-12-12T23:58:49.818Z,20.55
